Time;durP1;ratioP1;P1;durP2;ratioP2;P2;SDS_P1;SDS_P2;PMS_P1;PMS_P2;Temp;Humidity;BMP_temperature;BMP_pressure;BME280_temperature;BME280_humidity;BME280_pressure;Samples;Min_cycle;Max_cycle;Signal;HPM_P1;HPM_P2
2023/04/24 00:01:21;;;;;;;1.75;0.50;;;10.90;99.90;;;;;;7307613;32;20113;-54
2023/04/24 00:05:24;;;;;;;1.62;0.62;;;11.00;99.90;;;;;;7306363;32;20100;-55
2023/04/24 00:09:26;;;;;;;1.35;0.60;;;10.90;99.90;;;;;;7305440;32;20099;-54
2023/04/24 00:13:30;;;;;;;2.75;0.70;;;10.90;99.90;;;;;;7313261;32;20119;-54
2023/04/24 00:17:32;;;;;;;1.70;0.70;;;10.80;99.90;;;;;;7309645;32;20578;-54
2023/04/24 00:21:34;;;;;;;1.00;0.70;;;10.70;99.90;;;;;;7300816;32;20509;-54
2023/04/24 00:25:36;;;;;;;1.92;0.80;;;10.70;99.90;;;;;;7303273;32;20096;-56
2023/04/24 00:29:37;;;;;;;1.20;0.70;;;10.60;99.90;;;;;;7305133;32;20467;-55
2023/04/24 00:33:39;;;;;;;2.47;1.17;;;10.50;99.90;;;;;;7308631;32;20575;-55
2023/04/24 00:37:41;;;;;;;1.62;0.90;;;10.40;99.90;;;;;;7305957;32;20231;-55
2023/04/24 00:41:43;;;;;;;3.37;1.42;;;10.30;99.90;;;;;;7305165;32;20096;-54
2023/04/24 00:45:46;;;;;;;1.73;1.08;;;10.20;99.90;;;;;;7307451;32;20550;-54
2023/04/24 00:49:47;;;;;;;2.72;1.08;;;10.10;99.90;;;;;;7306273;32;20159;-56
2023/04/24 00:53:49;;;;;;;1.62;0.98;;;10.10;99.90;;;;;;7304441;32;20145;-55
2023/04/24 00:57:51;;;;;;;2.00;1.30;;;10.10;99.90;;;;;;7312183;32;20274;-54
2023/04/24 01:01:53;;;;;;;3.90;1.50;;;10.00;99.90;;;;;;7302886;32;20465;-54
2023/04/24 01:05:55;;;;;;;2.08;1.45;;;10.00;99.90;;;;;;7301814;32;20498;-54
2023/04/24 01:09:57;;;;;;;3.65;2.00;;;10.10;99.90;;;;;;7313138;32;20276;-55
2023/04/24 01:14:00;;;;;;;2.72;1.62;;;10.10;99.90;;;;;;7305204;32;20125;-55
2023/04/24 01:18:02;;;;;;;3.15;1.40;;;10.20;99.90;;;;;;7302516;32;20226;-55
2023/04/24 01:22:14;;;;;;;2.97;1.50;;;10.10;99.90;;;;;;7304547;32;20259;-54
2023/04/24 01:26:19;;;;;;;3.55;1.75;;;10.00;99.90;;;;;;7301637;32;20111;-54
2023/04/24 01:30:21;;;;;;;2.42;1.90;;;9.90;99.90;;;;;;7305539;32;20195;-55
2023/04/24 01:34:23;;;;;;;8.10;2.65;;;9.80;99.90;;;;;;7304325;32;20121;-54
2023/04/24 01:38:25;;;;;;;5.07;2.87;;;9.70;99.90;;;;;;7305680;32;20191;-54
2023/04/24 01:42:27;;;;;;;5.37;3.03;;;9.60;99.90;;;;;;7302373;32;20104;-54
2023/04/24 01:46:28;;;;;;;6.90;3.85;;;9.40;99.90;;;;;;7299934;32;20195;-55
2023/04/24 01:50:31;;;;;;;6.93;4.72;;;9.40;99.90;;;;;;7304670;32;20213;-54
2023/04/24 01:54:33;;;;;;;8.43;5.18;;;9.20;99.90;;;;;;7308844;32;20277;-54
2023/04/24 01:58:35;;;;;;;8.05;5.20;;;9.20;99.90;;;;;;7305438;32;20123;-54
2023/04/24 02:02:39;;;;;;;9.98;5.47;;;9.20;99.90;;;;;;7303139;32;20971;-54
2023/04/24 02:06:41;;;;;;;9.32;5.35;;;9.20;99.90;;;;;;7303719;32;20100;-54
2023/04/24 02:10:42;;;;;;;12.85;6.30;;;9.10;99.90;;;;;;7309515;32;20478;-54
2023/04/24 02:14:44;;;;;;;8.77;6.30;;;9.20;99.90;;;;;;7307815;32;20171;-54
2023/04/24 02:18:46;;;;;;;10.32;6.07;;;9.20;99.90;;;;;;7301476;32;20230;-54
2023/04/24 02:22:47;;;;;;;10.57;6.70;;;9.30;99.90;;;;;;7307474;32;20099;-54
2023/04/24 02:26:49;;;;;;;11.90;7.65;;;9.30;99.90;;;;;;7297552;32;20210;-54
2023/04/24 02:30:51;;;;;;;11.60;7.50;;;9.30;99.90;;;;;;7300027;32;20142;-53
2023/04/24 02:34:52;;;;;;;11.55;7.22;;;9.30;99.90;;;;;;7305372;32;20176;-54
2023/04/24 02:38:54;;;;;;;11.35;7.10;;;9.30;99.90;;;;;;7308082;32;20533;-55
2023/04/24 02:42:56;;;;;;;12.93;7.40;;;9.30;99.90;;;;;;7302832;32;20119;-56
2023/04/24 02:46:57;;;;;;;12.10;7.72;;;9.30;99.90;;;;;;7293471;32;20202;-55
2023/04/24 02:50:59;;;;;;;12.30;8.55;;;9.30;99.90;;;;;;7301224;32;20100;-54
2023/04/24 02:55:01;;;;;;;12.98;8.50;;;9.30;99.90;;;;;;7298332;32;20521;-56
2023/04/24 02:59:03;;;;;;;12.32;8.07;;;9.30;99.90;;;;;;7300327;32;20100;-56
2023/04/24 03:03:05;;;;;;;13.85;8.18;;;9.30;99.90;;;;;;7307626;32;20672;-53
2023/04/24 03:07:07;;;;;;;13.82;8.27;;;9.30;99.90;;;;;;7302504;32;20092;-54
2023/04/24 03:11:08;;;;;;;13.15;8.13;;;9.30;99.90;;;;;;7297961;32;20187;-55
2023/04/24 03:15:10;;;;;;;15.07;8.82;;;9.40;99.90;;;;;;7301719;32;20180;-54
2023/04/24 03:19:12;;;;;;;14.48;8.77;;;9.40;99.90;;;;;;7311344;32;20233;-54
2023/04/24 03:23:15;;;;;;;11.07;7.80;;;9.40;99.90;;;;;;7308599;32;20297;-54
2023/04/24 03:27:16;;;;;;;13.90;9.00;;;9.40;99.90;;;;;;7305845;32;20421;-54
2023/04/24 03:31:20;;;;;;;13.38;8.35;;;9.40;99.90;;;;;;7308140;32;20194;-56
2023/04/24 03:35:22;;;;;;;14.85;8.48;;;9.40;99.90;;;;;;7305785;32;20108;-54
2023/04/24 03:39:25;;;;;;;11.68;8.27;;;9.50;99.90;;;;;;7307337;32;20558;-54
2023/04/24 03:43:27;;;;;;;10.23;7.70;;;9.40;99.90;;;;;;7308618;32;20324;-54
2023/04/24 03:47:29;;;;;;;14.77;7.80;;;9.40;99.90;;;;;;7305720;32;20561;-55
2023/04/24 03:51:31;;;;;;;10.90;7.22;;;9.40;99.90;;;;;;7314090;32;20135;-55
2023/04/24 03:55:33;;;;;;;12.88;8.50;;;9.40;99.90;;;;;;7318272;32;20154;-54
2023/04/24 03:59:34;;;;;;;16.90;8.55;;;9.40;99.90;;;;;;7306236;32;20211;-54
2023/04/24 04:03:36;;;;;;;14.65;7.28;;;9.50;99.90;;;;;;7301541;32;20727;-54
2023/04/24 04:07:38;;;;;;;11.65;7.60;;;9.50;99.90;;;;;;7309065;32;20917;-55
2023/04/24 04:11:40;;;;;;;12.82;7.80;;;9.40;99.90;;;;;;7307704;32;20128;-54
2023/04/24 04:15:42;;;;;;;10.23;7.65;;;9.40;99.90;;;;;;7301081;32;20249;-54
2023/04/24 04:19:43;;;;;;;12.40;7.70;;;9.40;99.90;;;;;;7300989;32;20756;-54
2023/04/24 04:23:45;;;;;;;11.70;8.05;;;9.40;99.90;;;;;;7309942;32;20112;-54
2023/04/24 04:27:50;;;;;;;15.10;9.00;;;9.40;99.90;;;;;;7311697;32;20115;-54
2023/04/24 04:31:52;;;;;;;14.10;7.95;;;9.40;99.90;;;;;;7308940;32;20169;-54
2023/04/24 04:35:56;;;;;;;13.65;7.82;;;9.40;99.90;;;;;;7303341;32;20111;-54
2023/04/24 04:39:58;;;;;;;11.40;8.20;;;9.30;99.90;;;;;;7306606;32;20745;-55
2023/04/24 04:44:00;;;;;;;11.48;7.00;;;9.30;99.90;;;;;;7307657;32;20108;-54
2023/04/24 04:48:03;;;;;;;10.30;7.65;;;9.30;99.90;;;;;;7303251;32;20108;-56
2023/04/24 04:52:04;;;;;;;14.50;7.37;;;9.30;99.90;;;;;;7308904;32;20128;-55
2023/04/24 04:56:06;;;;;;;11.23;7.00;;;9.30;99.90;;;;;;7314028;32;20812;-55
2023/04/24 05:00:10;;;;;;;15.48;6.57;;;9.30;99.90;;;;;;7299975;32;21048;-56
2023/04/24 05:04:12;;;;;;;12.65;7.05;;;9.30;99.90;;;;;;7312182;32;20228;-55
2023/04/24 05:08:13;;;;;;;11.63;6.78;;;9.30;99.90;;;;;;7299993;32;20253;-55
2023/04/24 05:12:18;;;;;;;9.73;7.78;;;9.20;99.90;;;;;;7307577;32;20277;-56
2023/04/24 05:16:21;;;;;;;9.35;8.18;;;9.10;99.90;;;;;;7300496;32;20104;-56
2023/04/24 05:20:23;;;;;;;12.30;8.32;;;9.00;99.90;;;;;;7299364;32;20244;-57
2023/04/24 05:24:24;;;;;;;10.68;7.70;;;8.90;99.90;;;;;;7302158;32;20156;-56
2023/04/24 05:28:29;;;;;;;10.82;8.65;;;8.80;99.90;;;;;;7300251;32;20265;-56
2023/04/24 05:32:30;;;;;;;12.07;8.25;;;8.80;99.90;;;;;;7296700;32;20212;-56
2023/04/24 05:36:32;;;;;;;13.23;8.50;;;8.70;99.90;;;;;;7299220;32;20125;-56
2023/04/24 05:40:34;;;;;;;11.85;7.93;;;8.70;99.90;;;;;;7307746;32;20099;-55
2023/04/24 05:44:35;;;;;;;11.20;8.05;;;8.70;99.90;;;;;;7303991;32;20510;-54
2023/04/24 05:48:37;;;;;;;10.63;8.30;;;8.60;99.90;;;;;;7299701;32;20541;-56
2023/04/24 05:52:39;;;;;;;11.00;8.07;;;8.50;99.90;;;;;;7302028;32;20832;-58
2023/04/24 05:56:41;;;;;;;11.55;8.07;;;8.60;99.90;;;;;;7300692;32;20107;-55
2023/04/24 06:00:46;;;;;;;13.23;7.87;;;8.70;99.90;;;;;;7300837;32;20231;-55
2023/04/24 06:04:47;;;;;;;9.98;6.18;;;8.60;99.90;;;;;;7301366;32;20119;-55
2023/04/24 06:08:49;;;;;;;10.93;6.72;;;8.70;99.90;;;;;;7308163;32;20485;-55
2023/04/24 06:12:51;;;;;;;10.82;7.50;;;8.70;99.90;;;;;;7294784;32;20108;-54
2023/04/24 06:16:53;;;;;;;11.27;7.05;;;8.60;99.90;;;;;;7305730;32;20108;-54
2023/04/24 06:20:55;;;;;;;11.48;7.55;;;8.40;99.90;;;;;;7299840;32;20821;-55
2023/04/24 06:24:57;;;;;;;12.95;7.93;;;8.40;99.90;;;;;;7301222;32;20137;-54
2023/04/24 06:29:00;;;;;;;10.15;7.20;;;8.40;99.90;;;;;;7297061;32;20214;-56
2023/04/24 06:33:01;;;;;;;12.00;7.70;;;8.40;99.90;;;;;;7298494;32;20096;-55
2023/04/24 06:37:23;;;;;;;10.70;7.82;;;8.30;99.90;;;;;;7301055;32;20222;-56
2023/04/24 06:41:24;;;;;;;10.30;7.25;;;8.30;99.90;;;;;;7299937;32;20483;-55
2023/04/24 06:45:26;;;;;;;8.73;6.18;;;8.30;99.90;;;;;;7302565;32;20805;-54
2023/04/24 06:49:28;;;;;;;10.52;6.57;;;8.30;99.90;;;;;;7295867;32;20625;-55
2023/04/24 06:53:30;;;;;;;7.57;6.00;;;8.30;99.90;;;;;;7301034;32;20202;-54
2023/04/24 06:57:31;;;;;;;8.05;5.50;;;8.30;99.90;;;;;;7298435;32;20248;-54
2023/04/24 07:01:33;;;;;;;10.25;6.60;;;8.50;99.90;;;;;;7299662;32;20122;-55
2023/04/24 07:05:36;;;;;;;9.52;5.45;;;8.40;99.90;;;;;;7302626;32;20231;-55
2023/04/24 07:09:40;;;;;;;6.43;4.25;;;8.40;99.90;;;;;;7297682;32;20199;-56
2023/04/24 07:13:43;;;;;;;6.07;5.15;;;8.30;99.90;;;;;;7304408;32;20181;-56
2023/04/24 07:17:45;;;;;;;5.87;4.05;;;8.30;99.90;;;;;;7303748;32;20243;-56
2023/04/24 07:21:47;;;;;;;7.22;4.40;;;8.30;99.90;;;;;;7308751;32;20126;-56
2023/04/24 07:25:48;;;;;;;5.07;3.65;;;8.40;99.90;;;;;;7304913;32;20252;-56
2023/04/24 07:29:50;;;;;;;6.40;3.83;;;8.40;99.90;;;;;;7303206;32;20145;-56
2023/04/24 07:33:52;;;;;;;5.68;3.72;;;8.40;99.90;;;;;;7292660;32;20178;-56
2023/04/24 07:37:53;;;;;;;3.42;2.20;;;8.40;99.90;;;;;;7299241;32;20513;-58
2023/04/24 07:41:55;;;;;;;4.95;2.28;;;8.20;99.90;;;;;;7298673;32;20304;-56
2023/04/24 07:45:57;;;;;;;1.62;1.05;;;8.00;99.90;;;;;;7301010;32;20394;-59
2023/04/24 07:49:59;;;;;;;1.27;0.80;;;7.90;99.90;;;;;;7296486;32;20518;-56
2023/04/24 07:54:01;;;;;;;1.12;0.45;;;7.80;99.90;;;;;;7304561;32;20130;-56
2023/04/24 07:58:03;;;;;;;0.60;0.30;;;7.60;99.90;;;;;;7304697;32;20509;-56
2023/04/24 08:02:06;;;;;;;2.50;0.60;;;7.50;99.90;;;;;;7296830;32;20202;-57
2023/04/24 08:06:07;;;;;;;0.80;0.47;;;7.40;99.90;;;;;;7300943;32;20125;-56
2023/04/24 08:10:11;;;;;;;1.12;0.62;;;7.30;99.90;;;;;;7300360;32;20137;-57
2023/04/24 08:14:14;;;;;;;0.60;0.55;;;7.20;99.90;;;;;;7298629;32;20205;-57
2023/04/24 08:18:16;;;;;;;1.50;0.73;;;7.20;99.90;;;;;;7300722;32;20161;-57
2023/04/24 08:22:18;;;;;;;3.30;1.10;;;7.30;99.90;;;;;;7302951;32;20724;-58
2023/04/24 08:26:19;;;;;;;4.28;0.98;;;7.30;99.90;;;;;;7304859;32;20195;-57
2023/04/24 08:30:22;;;;;;;1.67;1.10;;;7.40;99.90;;;;;;7305836;32;20255;-56
2023/04/24 08:34:23;;;;;;;2.58;1.50;;;7.40;99.90;;;;;;7306496;32;20103;-57
2023/04/24 08:38:25;;;;;;;2.20;1.23;;;7.50;99.90;;;;;;7308226;32;20099;-57
2023/04/24 08:42:28;;;;;;;3.42;0.80;;;7.50;99.90;;;;;;7300962;32;20101;-57
2023/04/24 08:46:30;;;;;;;1.60;0.90;;;7.70;99.90;;;;;;7301221;32;20252;-57
2023/04/24 08:50:32;;;;;;;1.40;0.90;;;7.70;99.90;;;;;;7301224;32;20599;-57
2023/04/24 08:54:38;;;;;;;2.40;1.00;;;7.90;99.90;;;;;;7309326;32;20536;-57
2023/04/24 08:58:41;;;;;;;3.42;0.93;;;7.90;99.90;;;;;;7307131;32;20195;-57
2023/04/24 09:02:43;;;;;;;2.80;0.80;;;8.10;99.90;;;;;;7302037;32;20430;-56
2023/04/24 09:06:45;;;;;;;1.25;0.93;;;8.00;99.90;;;;;;7308545;32;20596;-57
2023/04/24 09:10:47;;;;;;;3.30;2.08;;;8.00;99.90;;;;;;7299549;32;20733;-57
2023/04/24 09:14:52;;;;;;;6.50;3.58;;;7.90;99.90;;;;;;7297197;32;20720;-58
2023/04/24 09:18:55;;;;;;;4.85;3.17;;;7.80;99.90;;;;;;7305279;32;20108;-59
2023/04/24 09:22:57;;;;;;;10.90;3.67;;;7.80;99.90;;;;;;7309924;32;20104;-56
2023/04/24 09:27:01;;;;;;;6.82;4.85;;;7.80;99.90;;;;;;7295001;32;20231;-57
2023/04/24 09:31:06;;;;;;;7.68;5.37;;;7.80;99.90;;;;;;7307278;32;20104;-57
2023/04/24 09:35:14;;;;;;;7.25;4.70;;;7.80;99.90;;;;;;7301291;32;20314;-57
2023/04/24 09:39:16;;;;;;;6.50;4.53;;;7.70;99.90;;;;;;7303050;32;20279;-56
2023/04/24 09:43:18;;;;;;;7.62;5.05;;;7.80;99.90;;;;;;7303612;32;20213;-58
2023/04/24 09:47:20;;;;;;;7.75;4.57;;;7.80;99.90;;;;;;7304270;32;20255;-57
2023/04/24 09:51:36;;;;;;;9.30;5.87;;;7.80;99.90;;;;;;7301357;32;20130;-57
2023/04/24 09:55:45;;;;;;;10.40;5.78;;;7.80;99.90;;;;;;7303193;32;20222;-58
2023/04/24 09:59:47;;;;;;;10.48;5.70;;;7.80;99.90;;;;;;7306363;32;20112;-57
2023/04/24 10:03:49;;;;;;;10.70;6.40;;;7.90;99.90;;;;;;7296657;32;20104;-57
2023/04/24 10:07:51;;;;;;;9.98;5.95;;;7.90;99.90;;;;;;7304331;32;20631;-56
2023/04/24 10:11:54;;;;;;;8.57;5.93;;;8.00;99.90;;;;;;7301180;32;20513;-56
2023/04/24 10:15:57;;;;;;;12.27;5.62;;;8.10;99.90;;;;;;7305850;32;20108;-56
2023/04/24 10:20:00;;;;;;;17.77;6.25;;;8.30;99.90;;;;;;7301823;32;20223;-56
2023/04/24 10:24:05;;;;;;;13.68;4.80;;;8.20;99.90;;;;;;7298104;32;20194;-56
2023/04/24 10:28:07;;;;;;;10.93;4.68;;;8.30;99.90;;;;;;7298743;32;20104;-56
2023/04/24 10:32:11;;;;;;;9.73;4.30;;;8.40;99.90;;;;;;7305268;32;20092;-56
2023/04/24 10:36:14;;;;;;;11.80;4.72;;;8.40;99.90;;;;;;7311488;32;20251;-56
2023/04/24 10:40:26;;;;;;;9.35;4.05;;;8.30;99.90;;;;;;7300354;32;20133;-56
2023/04/24 10:44:36;;;;;;;9.18;3.95;;;8.40;99.90;;;;;;7298164;32;20145;-56
2023/04/24 10:48:55;;;;;;;12.37;3.40;;;8.50;99.90;;;;;;7299418;32;20269;-56
2023/04/24 10:53:11;;;;;;;11.48;4.70;;;8.40;99.90;;;;;;7302874;32;20188;-57
2023/04/24 10:57:22;;;;;;;13.70;4.50;;;8.40;99.90;;;;;;7307951;32;20397;-56
2023/04/24 11:01:28;;;;;;;12.07;4.30;;;8.40;99.90;;;;;;7294237;32;20213;-55
2023/04/24 11:05:55;;;;;;;14.07;5.45;;;8.50;99.90;;;;;;7298926;32;20244;-57
2023/04/24 11:10:00;;;;;;;12.05;4.53;;;8.70;99.90;;;;;;7300403;32;20353;-56
2023/04/24 11:14:07;;;;;;;10.43;5.97;;;8.80;99.90;;;;;;7301403;32;20295;-56
2023/04/24 11:18:15;;;;;;;15.90;6.68;;;8.90;99.90;;;;;;7296650;32;20275;-56
2023/04/24 11:22:19;;;;;;;13.32;5.65;;;8.90;99.90;;;;;;7304240;32;20107;-55
2023/04/24 11:26:24;;;;;;;13.05;5.95;;;8.70;99.90;;;;;;7302104;32;20122;-56
2023/04/24 11:30:30;;;;;;;11.02;4.78;;;8.70;99.90;;;;;;7294569;32;20321;-56
2023/04/24 11:34:32;;;;;;;13.00;4.10;;;8.80;99.90;;;;;;7302689;32;20577;-56
2023/04/24 11:38:34;;;;;;;13.18;4.62;;;8.80;99.90;;;;;;7295678;32;20230;-56
2023/04/24 11:42:49;;;;;;;10.70;3.47;;;8.80;99.90;;;;;;7299267;32;20186;-56
2023/04/24 11:46:50;;;;;;;7.78;2.60;;;9.00;99.90;;;;;;7299927;32;20191;-56
2023/04/24 11:50:52;;;;;;;4.90;2.80;;;9.30;99.90;;;;;;7307775;32;20123;-56
2023/04/24 11:54:54;;;;;;;14.52;3.40;;;9.60;99.90;;;;;;7299675;32;20124;-56
2023/04/24 11:58:56;;;;;;;8.52;3.08;;;9.70;99.90;;;;;;7298706;32;20187;-56
2023/04/24 12:03:09;;;;;;;7.87;3.20;;;9.60;99.90;;;;;;7308487;32;20099;-61
2023/04/24 12:07:11;;;;;;;8.55;2.87;;;9.70;99.90;;;;;;7307833;32;20183;-61
2023/04/24 12:11:15;;;;;;;14.75;3.10;;;9.60;99.90;;;;;;7301014;32;20182;-61
2023/04/24 12:15:22;;;;;;;13.10;3.90;;;9.50;99.90;;;;;;7306426;32;20107;-56
2023/04/24 12:19:23;;;;;;;6.75;2.20;;;9.60;99.90;;;;;;7307449;32;20674;-56
2023/04/24 12:23:37;;;;;;;5.05;2.25;;;9.60;99.90;;;;;;7301463;32;20112;-56
2023/04/24 12:27:40;;;;;;;9.55;2.60;;;9.50;99.90;;;;;;7303480;32;20187;-56
2023/04/24 12:31:41;;;;;;;6.82;2.53;;;9.30;99.90;;;;;;7304103;32;20112;-56
2023/04/24 12:35:43;;;;;;;8.45;2.03;;;9.20;99.90;;;;;;7304733;32;20779;-56
2023/04/24 12:40:02;;;;;;;7.65;2.25;;;9.10;99.90;;;;;;7302525;32;20130;-56
2023/04/24 12:44:10;;;;;;;9.57;2.20;;;9.20;99.90;;;;;;7303213;32;20104;-56
2023/04/24 12:48:13;;;;;;;7.57;1.65;;;9.30;99.90;;;;;;7298369;32;20480;-56
2023/04/24 12:52:17;;;;;;;8.90;1.92;;;9.80;99.90;;;;;;7297170;32;20302;-56
2023/04/24 12:56:19;;;;;;;6.50;1.67;;;10.20;99.90;;;;;;7303091;32;20602;-56
2023/04/24 13:00:20;;;;;;;8.05;1.30;;;10.30;99.90;;;;;;7301011;32;20100;-56
2023/04/24 13:04:22;;;;;;;6.43;1.10;;;10.40;99.90;;;;;;7301257;32;20092;-56
2023/04/24 13:08:24;;;;;;;5.25;0.73;;;10.30;99.90;;;;;;7298470;32;20108;-55
2023/04/24 13:12:26;;;;;;;7.20;1.20;;;9.90;99.90;;;;;;7298733;32;20192;-55
2023/04/24 13:16:28;;;;;;;5.40;1.10;;;9.80;99.90;;;;;;7299142;32;20130;-58
2023/04/24 13:20:30;;;;;;;3.00;1.00;;;9.90;99.90;;;;;;7304687;32;20501;-56
2023/04/24 13:24:32;;;;;;;3.78;0.80;;;10.00;99.90;;;;;;7305332;32;20307;-56
2023/04/24 13:28:34;;;;;;;4.62;1.10;;;10.00;99.90;;;;;;7302236;32;20134;-56
2023/04/24 13:32:36;;;;;;;2.60;0.70;;;10.20;99.90;;;;;;7308981;32;20519;-56
2023/04/24 13:36:38;;;;;;;3.03;0.85;;;10.20;99.90;;;;;;7305698;32;20103;-57
2023/04/24 13:40:40;;;;;;;2.33;0.85;;;10.00;99.90;;;;;;7308256;32;20188;-55
2023/04/24 13:44:42;;;;;;;4.40;0.70;;;10.30;99.90;;;;;;7311370;32;20386;-56
2023/04/24 13:48:43;;;;;;;3.15;0.70;;;10.40;99.90;;;;;;7306514;32;20500;-56
2023/04/24 13:52:45;;;;;;;2.15;0.95;;;10.50;99.90;;;;;;7304528;32;20123;-56
2023/04/24 13:56:47;;;;;;;4.50;1.05;;;10.70;99.90;;;;;;7306787;32;20281;-56
2023/04/24 14:00:49;;;;;;;2.37;0.77;;;10.80;99.90;;;;;;7304448;32;20469;-56
2023/04/24 14:04:50;;;;;;;3.67;1.30;;;10.80;99.90;;;;;;7306877;32;20187;-56
2023/04/24 14:08:52;;;;;;;11.30;1.55;;;10.80;99.90;;;;;;7301128;32;20217;-56
2023/04/24 14:12:54;;;;;;;3.70;0.98;;;11.00;99.90;;;;;;7299367;32;20138;-56
2023/04/24 14:16:56;;;;;;;2.28;0.80;;;11.30;99.90;;;;;;7297946;32;20107;-56
2023/04/24 14:20:59;;;;;;;2.90;0.75;;;11.30;99.90;;;;;;7301787;32;20593;-56
2023/04/24 14:25:00;;;;;;;5.15;1.12;;;11.20;99.90;;;;;;7297854;32;22042;-57
2023/04/24 14:29:02;;;;;;;5.70;0.90;;;11.20;99.90;;;;;;7296525;32;20195;-56
2023/04/24 14:33:24;;;;;;;4.53;1.10;;;11.40;99.90;;;;;;7308222;32;20243;-56
2023/04/24 14:37:25;;;;;;;3.85;0.70;;;11.40;99.90;;;;;;7303528;32;20122;-56
2023/04/24 14:41:27;;;;;;;2.97;0.65;;;11.50;99.90;;;;;;7294734;32;20115;-56
2023/04/24 14:45:29;;;;;;;3.58;0.80;;;11.30;99.90;;;;;;7299867;32;20204;-57
2023/04/24 14:49:31;;;;;;;3.42;0.80;;;11.00;99.90;;;;;;7306772;32;20629;-57
2023/04/24 14:53:32;;;;;;;3.97;1.40;;;10.90;99.90;;;;;;7306035;32;20210;-58
2023/04/24 14:57:35;;;;;;;3.62;1.25;;;11.20;99.90;;;;;;7307709;32;20222;-58
2023/04/24 15:01:37;;;;;;;1.75;0.68;;;11.20;99.90;;;;;;7306459;32;20103;-56
2023/04/24 15:05:39;;;;;;;4.30;1.17;;;11.30;99.90;;;;;;7296137;32;20126;-58
2023/04/24 15:09:41;;;;;;;3.08;1.00;;;11.20;99.90;;;;;;7296383;32;20104;-57
2023/04/24 15:13:44;;;;;;;2.95;1.00;;;11.20;99.90;;;;;;7296450;32;20281;-57
2023/04/24 15:17:47;;;;;;;2.58;0.90;;;11.00;99.90;;;;;;7295278;32;20685;-57
2023/04/24 15:21:48;;;;;;;5.28;1.00;;;11.00;99.90;;;;;;7296087;32;20104;-57
2023/04/24 15:25:50;;;;;;;2.05;0.98;;;11.10;99.90;;;;;;7302426;32;20150;-57
2023/04/24 15:29:53;;;;;;;3.10;1.00;;;11.30;99.90;;;;;;7298018;32;20363;-57
2023/04/24 15:33:55;;;;;;;2.80;1.30;;;11.40;99.90;;;;;;7300813;32;20257;-57
2023/04/24 15:37:56;;;;;;;5.12;1.00;;;11.20;99.90;;;;;;7306658;32;20250;-58
2023/04/24 15:42:00;;;;;;;2.22;1.00;;;11.20;99.90;;;;;;7303622;32;20100;-58
2023/04/24 15:46:03;;;;;;;3.10;1.00;;;11.40;99.90;;;;;;7306870;32;20257;-58
2023/04/24 15:50:08;;;;;;;4.40;0.85;;;11.50;99.90;;;;;;7306620;32;20904;-57
2023/04/24 15:54:09;;;;;;;4.03;1.10;;;11.80;99.90;;;;;;7303704;32;20203;-57
2023/04/24 15:58:11;;;;;;;5.65;1.80;;;11.80;99.90;;;;;;7296052;32;20130;-57
2023/04/24 16:02:20;;;;;;;3.28;1.35;;;11.60;99.90;;;;;;7295728;32;20352;-58
2023/04/24 16:06:22;;;;;;;5.03;1.05;;;11.50;99.90;;;;;;7303523;32;20105;-58
2023/04/24 16:10:25;;;;;;;4.00;0.88;;;11.20;99.90;;;;;;7305571;32;20153;-57
2023/04/24 16:14:26;;;;;;;5.72;1.30;;;11.40;99.90;;;;;;7302356;32;20183;-58
2023/04/24 16:18:28;;;;;;;5.18;1.10;;;11.60;99.90;;;;;;7297396;32;20306;-58
2023/04/24 16:22:30;;;;;;;3.87;1.33;;;11.70;99.90;;;;;;7306343;32;20539;-58
2023/04/24 16:26:31;;;;;;;4.32;1.48;;;11.70;99.90;;;;;;7302858;32;20186;-58
2023/04/24 16:30:33;;;;;;;6.07;1.48;;;11.40;99.90;;;;;;7300988;32;20101;-58
2023/04/24 16:34:35;;;;;;;3.08;1.20;;;11.40;99.90;;;;;;7300450;32;20239;-58
2023/04/24 16:38:38;;;;;;;3.67;1.40;;;11.20;99.90;;;;;;7307007;32;20528;-58
2023/04/24 16:42:39;;;;;;;2.97;1.45;;;11.10;99.90;;;;;;7308838;32;20120;-57
2023/04/24 16:46:41;;;;;;;5.00;1.50;;;11.00;99.90;;;;;;7303218;32;20128;-58
2023/04/24 16:50:44;;;;;;;3.78;1.27;;;11.00;99.90;;;;;;7310417;32;20210;-57
2023/04/24 16:54:46;;;;;;;3.58;1.20;;;10.90;99.90;;;;;;7320552;32;20673;-57
2023/04/24 16:58:48;;;;;;;5.53;1.20;;;10.90;99.90;;;;;;7307108;32;20786;-58
2023/04/24 17:02:50;;;;;;;2.78;1.15;;;10.80;99.90;;;;;;7302723;32;20517;-58
2023/04/24 17:06:53;;;;;;;2.60;0.93;;;10.80;99.90;;;;;;7305197;32;20257;-57
2023/04/24 17:10:54;;;;;;;2.92;1.20;;;10.60;99.90;;;;;;7305251;32;20128;-57
2023/04/24 17:14:56;;;;;;;4.37;1.40;;;10.40;99.90;;;;;;7302375;32;20305;-58
2023/04/24 17:18:58;;;;;;;3.85;1.20;;;10.30;99.90;;;;;;7302478;32;20127;-58
2023/04/24 17:23:00;;;;;;;4.22;1.08;;;10.20;99.90;;;;;;7302865;32;20720;-58
2023/04/24 17:27:01;;;;;;;4.37;1.20;;;10.10;99.90;;;;;;7299776;32;20153;-57
2023/04/24 17:31:15;;;;;;;5.22;1.10;;;10.10;99.90;;;;;;7299170;32;20119;-57
2023/04/24 17:35:17;;;;;;;3.75;1.52;;;10.20;99.90;;;;;;7304227;32;20129;-57
2023/04/24 17:39:18;;;;;;;3.35;1.30;;;10.10;99.90;;;;;;7298224;32;20108;-58
2023/04/24 17:43:21;;;;;;;5.57;1.52;;;10.10;99.90;;;;;;7305525;32;20108;-59
2023/04/24 17:47:25;;;;;;;5.57;1.80;;;10.00;99.90;;;;;;7302138;32;20095;-57
2023/04/24 17:51:26;;;;;;;4.87;1.62;;;9.90;99.90;;;;;;7299996;32;20124;-57
2023/04/24 17:55:28;;;;;;;5.53;1.75;;;9.80;99.90;;;;;;7304522;32;20651;-57
2023/04/24 17:59:30;;;;;;;4.25;2.00;;;9.80;99.90;;;;;;7304922;32;20125;-57
2023/04/24 18:03:32;;;;;;;5.03;1.25;;;9.70;99.90;;;;;;7303014;32;20132;-57
2023/04/24 18:07:33;;;;;;;3.45;1.15;;;9.60;99.90;;;;;;7307504;32;20550;-57
2023/04/24 18:11:35;;;;;;;4.28;1.30;;;9.40;99.90;;;;;;7301089;32;20245;-58
2023/04/24 18:15:40;;;;;;;6.18;1.35;;;9.30;99.90;;;;;;7306963;32;20183;-57
2023/04/24 18:19:42;;;;;;;6.05;1.45;;;9.10;99.90;;;;;;7305652;32;20095;-57
2023/04/24 18:23:45;;;;;;;5.03;1.30;;;9.10;99.90;;;;;;7300433;32;20145;-57
2023/04/24 18:27:46;;;;;;;6.28;1.37;;;9.00;99.90;;;;;;7304505;32;20385;-57
2023/04/24 18:31:48;;;;;;;3.70;1.40;;;8.90;99.90;;;;;;7294334;32;20104;-57
2023/04/24 18:35:50;;;;;;;3.35;1.40;;;8.90;99.90;;;;;;7298711;32;20568;-57
2023/04/24 18:39:54;;;;;;;5.78;1.87;;;8.90;99.90;;;;;;7305614;32;20100;-57
2023/04/24 18:43:57;;;;;;;6.75;2.65;;;8.90;99.90;;;;;;7305616;32;20548;-57
2023/04/24 18:47:59;;;;;;;6.60;2.17;;;8.80;99.90;;;;;;7296240;32;20130;-57
2023/04/24 18:52:01;;;;;;;7.62;2.20;;;8.80;99.90;;;;;;7304038;32;20104;-57
2023/04/24 18:56:03;;;;;;;6.15;1.95;;;8.80;99.90;;;;;;7302534;32;20692;-56
2023/04/24 19:00:06;;;;;;;6.47;2.00;;;8.70;99.90;;;;;;7303122;32;20588;-56
2023/04/24 19:04:07;;;;;;;6.72;2.05;;;8.60;99.90;;;;;;7301552;32;20135;-56
2023/04/24 19:08:09;;;;;;;7.47;2.20;;;8.70;99.90;;;;;;7298863;32;20130;-56
2023/04/24 19:12:11;;;;;;;5.82;1.70;;;8.70;99.90;;;;;;7309176;32;20770;-56
2023/04/24 19:16:12;;;;;;;6.68;1.83;;;8.60;99.90;;;;;;7303045;32;20100;-56
2023/04/24 19:20:14;;;;;;;6.68;1.95;;;8.60;99.90;;;;;;7300546;32;22650;-56
2023/04/24 19:24:17;;;;;;;6.53;1.87;;;8.50;99.90;;;;;;7301848;32;20158;-56
2023/04/24 19:28:19;;;;;;;6.50;2.50;;;8.40;99.90;;;;;;7300062;32;20160;-56
2023/04/24 19:32:21;;;;;;;8.65;2.30;;;8.30;99.90;;;;;;7298126;32;20103;-56
2023/04/24 19:36:23;;;;;;;5.85;2.12;;;8.20;99.90;;;;;;7296039;32;20486;-56
2023/04/24 19:40:25;;;;;;;5.40;2.03;;;8.10;99.90;;;;;;7295668;32;20202;-57
2023/04/24 19:44:26;;;;;;;8.25;2.00;;;7.90;99.90;;;;;;7296308;32;20481;-56
2023/04/24 19:48:31;;;;;;;7.75;2.97;;;7.80;99.90;;;;;;7299899;32;20131;-56
2023/04/24 19:52:33;;;;;;;8.95;2.65;;;7.70;99.90;;;;;;7299268;32;20214;-56
2023/04/24 19:56:34;;;;;;;8.50;2.58;;;7.70;99.90;;;;;;7303992;32;20227;-54
2023/04/24 20:00:36;;;;;;;8.90;2.30;;;7.70;99.90;;;;;;7302725;32;20615;-55
2023/04/24 20:04:38;;;;;;;8.65;2.60;;;7.60;99.90;;;;;;7294322;32;20134;-55
2023/04/24 20:08:41;;;;;;;9.43;2.20;;;7.60;99.90;;;;;;7298332;32;20104;-55
2023/04/24 20:12:43;;;;;;;11.38;2.62;;;7.60;99.90;;;;;;7298137;32;20150;-55
2023/04/24 20:16:45;;;;;;;6.95;2.40;;;7.50;99.90;;;;;;7298958;32;20257;-58
2023/04/24 20:20:46;;;;;;;8.45;2.50;;;7.50;99.90;;;;;;7301419;32;20110;-54
2023/04/24 20:24:49;;;;;;;9.95;3.17;;;7.60;99.90;;;;;;7304867;32;20096;-55
2023/04/24 20:28:50;;;;;;;12.13;3.15;;;7.50;99.90;;;;;;7301453;32;20114;-55
2023/04/24 20:32:53;;;;;;;7.65;2.92;;;7.50;99.90;;;;;;7305549;32;20660;-54
2023/04/24 20:36:58;;;;;;;9.98;2.42;;;7.40;99.90;;;;;;7301133;32;20126;-54
2023/04/24 20:40:59;;;;;;;9.00;2.20;;;7.40;99.90;;;;;;7309117;32;20104;-54
2023/04/24 20:45:02;;;;;;;11.70;3.37;;;7.30;99.90;;;;;;7307650;32;20194;-55
2023/04/24 20:49:04;;;;;;;8.55;2.58;;;7.30;99.90;;;;;;7316955;32;20226;-54
2023/04/24 20:53:06;;;;;;;11.95;3.40;;;7.30;99.90;;;;;;7312684;32;20100;-55
2023/04/24 20:57:08;;;;;;;8.50;3.30;;;7.20;99.90;;;;;;7307526;32;20307;-54
2023/04/24 21:01:10;;;;;;;9.63;3.03;;;7.10;99.90;;;;;;7304938;32;20104;-54
2023/04/24 21:05:12;;;;;;;9.45;3.80;;;7.00;99.90;;;;;;7303623;32;20104;-55
2023/04/24 21:09:13;;;;;;;10.23;3.22;;;7.00;99.90;;;;;;7312163;32;20262;-55